createdAt,value
2023-02-04T00:01:35.261Z,100295.05
2023-02-04T00:04:04.313Z,100290.91
2023-02-04T00:06:34.734Z,100288.61
2023-02-04T00:09:02.826Z,100289.95
2023-02-04T00:11:31.610Z,100288.98
2023-02-04T00:14:00.155Z,100285.35
2023-02-04T00:16:28.289Z,100288.86
2023-02-04T00:18:56.576Z,100287.77
2023-02-04T00:21:24.722Z,100291.35
2023-02-04T00:23:52.988Z,100285.55
2023-02-04T00:26:21.244Z,100281.66
2023-02-04T00:28:49.566Z,100282.55
2023-02-04T00:31:18.120Z,100281.04
2023-02-04T00:33:46.314Z,100283.58
2023-02-04T00:36:14.405Z,100283.71
2023-02-04T00:38:42.668Z,100285.42
2023-02-04T00:41:10.781Z,100289.80
2023-02-04T00:43:39.164Z,100292.66
2023-02-04T00:46:08.063Z,100292.84
2023-02-04T00:48:36.786Z,100291.46
2023-02-04T00:51:05.044Z,100292.34
2023-02-04T00:53:34.744Z,100292.16
2023-02-04T00:56:03.574Z,100294.17
2023-02-04T00:58:32.403Z,100292.21
2023-02-04T01:01:00.638Z,100288.59
2023-02-04T01:03:29.275Z,100287.55
2023-02-04T01:05:57.446Z,100289.02
2023-02-04T01:08:25.868Z,100290.50
2023-02-04T01:10:56.126Z,100287.79
2023-02-04T01:13:24.371Z,100289.41
2023-02-04T01:15:53.977Z,100285.52
2023-02-04T01:18:23.296Z,100284.55
2023-02-04T01:20:51.529Z,100283.32
2023-02-04T01:23:19.636Z,100286.92
2023-02-04T01:25:50.764Z,100286.86
2023-02-04T01:28:18.895Z,100288.80
2023-02-04T01:30:47.131Z,100289.73
2023-02-04T01:33:15.657Z,100289.67
2023-02-04T01:35:44.258Z,100285.98
2023-02-04T01:38:15.552Z,100288.88
2023-02-04T01:40:44.970Z,100287.79
2023-02-04T01:43:13.440Z,100289.98
2023-02-04T01:45:41.761Z,100291.85
2023-02-04T01:48:09.940Z,100290.89
2023-02-04T01:50:38.945Z,100286.75
2023-02-04T01:53:07.730Z,100283.26
2023-02-04T01:55:35.927Z,100284.92
2023-02-04T01:58:04.182Z,100281.91
2023-02-04T02:00:33.366Z,100279.41
2023-02-04T02:03:03.689Z,100278.44
2023-02-04T02:05:49.629Z,100281.11
2023-02-04T02:08:17.830Z,100279.55
2023-02-04T02:10:47.402Z,100278.05
2023-02-04T02:13:17.774Z,100276.61
2023-02-04T02:15:46.237Z,100278.13
2023-02-04T02:18:14.656Z,100278.21
2023-02-04T02:20:43.463Z,100276.84
2023-02-04T02:23:47.442Z,100277.02
2023-02-04T02:26:15.725Z,100277.65
2023-02-04T02:28:44.281Z,100282.21
2023-02-04T02:31:13.058Z,100281.73
2023-02-04T02:33:41.315Z,100285.00
2023-02-04T02:36:10.462Z,100283.42
2023-02-04T02:38:39.571Z,100286.39
2023-02-04T02:41:10.370Z,100285.52
2023-02-04T02:43:38.765Z,100289.10
2023-02-04T02:46:06.968Z,100284.38
2023-02-04T02:48:35.243Z,100285.02
2023-02-04T02:51:03.450Z,100288.30
2023-02-04T02:53:31.859Z,100288.08
2023-02-04T02:56:04.754Z,100290.61
2023-02-04T02:58:34.616Z,100289.98
2023-02-04T03:01:06.657Z,100287.09
2023-02-04T03:03:56.509Z,100291.02
2023-02-04T03:06:25.540Z,100288.65
2023-02-04T03:08:55.556Z,100283.59
2023-02-04T03:11:26.406Z,100288.37
2023-02-04T03:13:54.663Z,100291.63
2023-02-04T03:16:22.766Z,100290.83
2023-02-04T03:18:50.904Z,100291.48
2023-02-04T03:21:19.065Z,100290.22
2023-02-04T03:23:47.405Z,100293.92
2023-02-04T03:26:15.555Z,100296.13
2023-02-04T03:28:43.730Z,100297.48
2023-02-04T03:31:12.016Z,100303.09
2023-02-04T03:33:40.276Z,100306.09
2023-02-04T03:36:09.239Z,100304.45
2023-02-04T03:38:37.627Z,100305.63
2023-02-04T03:41:06.456Z,100304.17
2023-02-04T03:43:34.611Z,100305.39
2023-02-04T03:46:02.844Z,100306.65
2023-02-04T03:48:32.159Z,100304.83
2023-02-04T03:51:00.428Z,100306.65
2023-02-04T03:53:29.033Z,100312.36
2023-02-04T03:55:57.162Z,100312.47
2023-02-04T03:58:25.542Z,100316.85
2023-02-04T04:00:53.781Z,100315.00
2023-02-04T04:03:22.243Z,100314.17
2023-02-04T04:05:50.423Z,100312.61
2023-02-04T04:08:18.557Z,100310.44
2023-02-04T04:10:46.930Z,100314.30
2023-02-04T04:13:15.041Z,100308.77
2023-02-04T04:15:43.415Z,100309.48
2023-02-04T04:18:11.515Z,100311.60
2023-02-04T04:20:39.987Z,100307.17
2023-02-04T04:23:08.545Z,100308.42
2023-02-04T04:25:37.302Z,100311.21
2023-02-04T04:28:05.638Z,100312.48
2023-02-04T04:30:34.493Z,100314.92
2023-02-04T04:33:02.773Z,100319.87
2023-02-04T04:35:31.313Z,100319.21
2023-02-04T04:37:59.462Z,100324.02
2023-02-04T04:40:27.678Z,100320.00
2023-02-04T04:42:56.109Z,100314.95
2023-02-04T04:45:24.228Z,100319.06
2023-02-04T04:47:52.290Z,100321.98
2023-02-04T04:50:20.410Z,100324.51
2023-02-04T04:52:48.529Z,100323.88
2023-02-04T04:55:16.976Z,100329.67
2023-02-04T04:57:45.277Z,100333.67
2023-02-04T05:00:17.593Z,100333.19
2023-02-04T05:02:46.111Z,100333.80
2023-02-04T05:05:14.420Z,100330.75
2023-02-04T05:07:42.504Z,100335.33
2023-02-04T05:10:10.923Z,100337.94
2023-02-04T05:12:40.865Z,100340.94
2023-02-04T05:15:09.471Z,100348.88
2023-02-04T05:17:37.899Z,100350.27
2023-02-04T05:20:07.028Z,100357.61
2023-02-04T05:22:35.707Z,100359.84
2023-02-04T05:25:04.084Z,100365.09
2023-02-04T05:27:33.062Z,100369.52
2023-02-04T05:30:01.222Z,100375.23
2023-02-04T05:32:29.776Z,100377.92
2023-02-04T05:34:57.864Z,100380.88
2023-02-04T05:37:26.045Z,100385.58
2023-02-04T05:39:54.129Z,100387.58
2023-02-04T05:42:22.216Z,100389.39
2023-02-04T05:44:50.368Z,100399.16
2023-02-04T05:47:20.611Z,100400.14
2023-02-04T05:49:49.109Z,100400.79
2023-02-04T05:52:17.329Z,100404.98
2023-02-04T05:54:45.473Z,100412.83
2023-02-04T05:57:13.929Z,100414.43
2023-02-04T05:59:42.216Z,100413.48
2023-02-04T06:02:10.414Z,100419.58
2023-02-04T06:04:39.013Z,100419.16
2023-02-04T06:07:07.341Z,100423.80
2023-02-04T06:09:35.425Z,100424.73
2023-02-04T06:12:05.401Z,100427.55
2023-02-04T06:14:34.726Z,100431.29
2023-02-04T06:17:04.766Z,100429.39
2023-02-04T06:19:34.108Z,100427.77
2023-02-04T06:22:03.087Z,100435.26
2023-02-04T06:24:33.699Z,100433.42
2023-02-04T06:27:02.265Z,100435.20
2023-02-04T06:29:30.381Z,100435.54
2023-02-04T06:31:58.809Z,100437.58
2023-02-04T06:34:45.950Z,100440.61
2023-02-04T06:37:16.064Z,100443.51
2023-02-04T06:39:44.693Z,100440.67
2023-02-04T06:42:12.981Z,100442.56
2023-02-04T06:44:41.492Z,100449.02
2023-02-04T06:47:09.606Z,100452.50
2023-02-04T06:49:37.833Z,100458.52
2023-02-04T06:52:06.562Z,100459.24
2023-02-04T06:54:34.746Z,100460.17
2023-02-04T06:57:08.720Z,100461.65
2023-02-04T06:59:37.660Z,100465.20
2023-02-04T07:02:06.870Z,100467.01
2023-02-04T07:04:35.530Z,100472.42
2023-02-04T07:07:03.946Z,100473.79
2023-02-04T07:09:32.121Z,100475.05
2023-02-04T07:12:00.260Z,100475.61
2023-02-04T07:14:28.838Z,100480.77
2023-02-04T07:16:58.819Z,100482.84
2023-02-04T07:19:27.102Z,100485.42
2023-02-04T07:21:57.236Z,100484.69
2023-02-04T07:24:25.746Z,100483.85
2023-02-04T07:26:53.967Z,100485.05
2023-02-04T07:29:25.714Z,100491.18
2023-02-04T07:31:54.510Z,100492.30
2023-02-04T07:34:23.348Z,100492.61
2023-02-04T07:36:51.742Z,100493.30
2023-02-04T07:39:19.912Z,100491.42
2023-02-04T07:41:48.126Z,100491.05
2023-02-04T07:44:17.184Z,100490.77
2023-02-04T07:46:45.566Z,100493.73
2023-02-04T07:49:13.843Z,100490.00
2023-02-04T07:51:41.917Z,100493.27
2023-02-04T07:54:10.218Z,100493.31
2023-02-04T07:56:38.845Z,100493.29
2023-02-04T07:59:07.115Z,100493.77
2023-02-04T08:01:35.519Z,100500.71
2023-02-04T08:04:03.824Z,100499.08
2023-02-04T08:06:33.202Z,100504.18
2023-02-04T08:09:01.732Z,100503.85
2023-02-04T08:11:31.009Z,100502.48
2023-02-04T08:13:59.266Z,100505.81
2023-02-04T08:16:27.526Z,100509.38
2023-02-04T08:18:55.890Z,100511.58
2023-02-04T08:21:24.260Z,100508.56
2023-02-04T08:23:52.539Z,100511.09
2023-02-04T08:26:20.678Z,100510.95
2023-02-04T08:28:48.852Z,100516.33
2023-02-04T08:31:17.272Z,100519.59
2023-02-04T08:33:46.321Z,100516.96
2023-02-04T08:36:14.728Z,100520.98
2023-02-04T08:38:44.744Z,100519.75
2023-02-04T08:41:13.136Z,100527.40
2023-02-04T08:43:41.446Z,100529.52
2023-02-04T08:46:10.470Z,100531.36
2023-02-04T08:50:11.025Z,100534.27
2023-02-04T08:52:41.159Z,100530.42
2023-02-04T08:55:09.414Z,100532.42
2023-02-04T08:57:38.039Z,100533.45
2023-02-04T09:00:06.873Z,100534.44
2023-02-04T09:02:36.091Z,100537.71
2023-02-04T09:05:04.527Z,100538.33
2023-02-04T09:07:32.784Z,100538.28
2023-02-04T09:10:01.136Z,100542.82
2023-02-04T09:12:32.496Z,100539.88
2023-02-04T09:15:00.774Z,100537.42
2023-02-04T09:17:34.128Z,100546.59
2023-02-04T09:20:02.945Z,100546.38
2023-02-04T09:22:32.044Z,100540.80
2023-02-04T09:25:00.721Z,100536.21
2023-02-04T09:27:29.227Z,100537.15
2023-02-04T09:29:57.445Z,100536.66
2023-02-04T09:32:25.577Z,100537.47
2023-02-04T09:34:54.374Z,100538.49
2023-02-04T09:37:24.548Z,100537.83
2023-02-04T09:39:52.729Z,100539.23
2023-02-04T09:42:20.823Z,100536.02
2023-02-04T09:44:49.150Z,100536.94
2023-02-04T09:47:17.352Z,100541.95
2023-02-04T09:49:48.554Z,100540.98
2023-02-04T09:52:17.107Z,100542.20
2023-02-04T09:54:45.337Z,100541.09
2023-02-04T09:57:18.744Z,100542.84
2023-02-04T09:59:47.214Z,100541.29
2023-02-04T10:02:22.032Z,100544.63
2023-02-04T10:04:57.754Z,100550.21
2023-02-04T10:07:27.685Z,100550.95
2023-02-04T10:09:56.182Z,100553.96
2023-02-04T10:12:24.734Z,100558.12
2023-02-04T10:14:57.965Z,100557.40
2023-02-04T10:17:26.233Z,100555.84
2023-02-04T10:19:54.686Z,100558.21
2023-02-04T10:22:23.898Z,100563.02
2023-02-04T10:24:52.296Z,100568.00
2023-02-04T10:27:20.787Z,100569.98
2023-02-04T10:29:59.111Z,100574.29
2023-02-04T10:32:32.138Z,100577.56
2023-02-04T10:35:03.955Z,100581.34
2023-02-04T10:37:32.365Z,100587.70
2023-02-04T10:40:00.817Z,100590.52
2023-02-04T10:42:30.444Z,100591.79
2023-02-04T10:44:59.651Z,100597.58
2023-02-04T10:47:31.339Z,100601.71
2023-02-04T10:50:15.396Z,100605.11
2023-02-04T10:52:46.051Z,100602.88
2023-02-04T10:55:19.453Z,100602.77
2023-02-04T10:57:49.028Z,100605.88
2023-02-04T11:00:22.419Z,100609.88
2023-02-04T11:02:59.766Z,100613.50
2023-02-04T11:05:33.230Z,100619.02
2023-02-04T11:08:02.249Z,100627.73
2023-02-04T11:10:32.268Z,100629.14
2023-02-04T11:13:03.229Z,100635.70
2023-02-04T11:15:50.347Z,100634.30
2023-02-04T11:18:21.628Z,100637.15
2023-02-04T11:20:53.074Z,100643.20
2023-02-04T11:23:27.199Z,100644.46
2023-02-04T11:26:04.389Z,100646.50
2023-02-04T11:28:47.877Z,100650.40
2023-02-04T11:31:22.573Z,100651.48
2023-02-04T11:33:51.567Z,100650.71
2023-02-04T11:36:21.742Z,100651.56
2023-02-04T11:38:50.275Z,100651.48
2023-02-04T11:41:24.086Z,100648.95
2023-02-04T11:43:52.640Z,100652.27
2023-02-04T11:46:21.182Z,100654.27
2023-02-04T11:48:56.262Z,100658.15
2023-02-04T11:51:34.381Z,100662.40
2023-02-04T11:54:02.551Z,100660.84
2023-02-04T11:56:30.950Z,100664.08
2023-02-04T11:58:59.175Z,100673.78
2023-02-04T14:40:06.411Z,100825.24
2023-02-04T14:42:35.999Z,100835.24
2023-02-04T14:45:08.735Z,100834.45
2023-02-04T14:47:38.623Z,100835.75
2023-02-04T14:50:08.387Z,100838.09
2023-02-04T14:52:36.565Z,100839.73
2023-02-04T14:55:05.088Z,100840.07
2023-02-04T14:57:33.695Z,100842.63
2023-02-04T15:00:01.968Z,100847.09
2023-02-04T15:02:30.991Z,100851.70
2023-02-04T15:05:00.249Z,100854.09
2023-02-04T15:07:29.884Z,100860.92
2023-02-04T15:09:59.075Z,100871.25
2023-02-04T15:12:27.235Z,100872.38
2023-02-04T15:14:55.310Z,100876.41
2023-02-04T15:17:23.455Z,100880.46
2023-02-04T15:19:51.525Z,100884.88
2023-02-04T15:22:19.888Z,100887.39
2023-02-04T15:24:48.450Z,100888.18
2023-02-04T15:27:16.575Z,100889.84
2023-02-04T15:29:44.792Z,100892.66
2023-02-04T15:32:13.234Z,100898.65
2023-02-04T15:34:41.670Z,100902.84
2023-02-04T15:37:11.186Z,100904.39
2023-02-04T15:39:40.911Z,100907.71
2023-02-04T15:42:09.691Z,100912.90
2023-02-04T15:44:38.026Z,100918.46
2023-02-04T15:47:07.174Z,100919.21
2023-02-04T15:49:35.758Z,100920.82
2023-02-04T15:52:05.806Z,100923.09
2023-02-04T15:54:38.126Z,100924.20
2023-02-04T15:57:06.406Z,100928.09
2023-02-04T15:59:34.932Z,100934.16
2023-02-04T16:02:03.353Z,100939.86
2023-02-04T16:04:31.673Z,100938.35
2023-02-04T16:07:00.166Z,100943.91
2023-02-04T16:09:28.668Z,100946.85
2023-02-04T16:11:57.396Z,100951.70
2023-02-04T16:14:25.920Z,100951.46
2023-02-04T16:16:54.119Z,100954.27
2023-02-04T16:19:22.290Z,100958.74
2023-02-04T16:21:50.404Z,100965.68
2023-02-04T16:24:18.630Z,100965.18
2023-02-04T16:26:46.933Z,100968.15
2023-02-04T16:29:15.218Z,100967.32
2023-02-04T16:31:43.538Z,100972.85
2023-02-04T16:34:12.396Z,100971.00
2023-02-04T16:36:40.545Z,100972.69
2023-02-04T16:39:09.116Z,100967.42
2023-02-04T16:41:37.489Z,100968.75
2023-02-04T16:44:05.773Z,100969.44
2023-02-04T16:46:34.284Z,100972.39
2023-02-04T16:49:05.137Z,100971.91
2023-02-04T16:51:33.397Z,100976.44
2023-02-04T16:54:01.987Z,100976.29
2023-02-04T16:56:35.985Z,100976.14
2023-02-04T16:59:04.357Z,100974.36
2023-02-04T17:01:35.909Z,100975.67
2023-02-04T17:04:04.511Z,100980.84
2023-02-04T17:06:32.991Z,100980.73
2023-02-04T17:09:01.589Z,100981.63
2023-02-04T17:11:31.573Z,100986.66
2023-02-04T17:14:01.767Z,100986.53
2023-02-04T17:16:31.218Z,100987.77
2023-02-04T17:19:00.540Z,100991.33
2023-02-04T17:21:29.504Z,100991.23
2023-02-04T17:24:04.361Z,100991.55
2023-02-04T17:26:37.648Z,100994.33
2023-02-04T17:29:14.222Z,100994.70
2023-02-04T17:31:43.552Z,100999.21
2023-02-04T17:34:11.921Z,101002.33
2023-02-04T17:36:40.294Z,101000.30
2023-02-04T17:39:08.651Z,101001.19
2023-02-04T17:41:37.207Z,101003.54
2023-02-04T17:44:05.632Z,101008.42
2023-02-04T17:46:34.448Z,101007.90
2023-02-04T17:49:02.932Z,101009.48
2023-02-04T17:51:31.645Z,101012.27
2023-02-04T17:54:00.233Z,101015.23
2023-02-04T17:56:28.681Z,101017.83
2023-02-04T17:58:56.933Z,101026.30
2023-02-04T18:01:26.108Z,101029.10
2023-02-04T18:03:54.445Z,101030.63
2023-02-04T18:06:25.430Z,101036.73
2023-02-04T18:08:56.781Z,101033.13
2023-02-04T18:11:27.677Z,101043.15
2023-02-04T18:14:05.282Z,101041.83
2023-02-04T18:16:34.594Z,101048.05
2023-02-04T18:19:31.798Z,101046.53
2023-02-04T18:22:00.279Z,101046.74
2023-02-04T18:24:37.477Z,101051.93
2023-02-04T18:27:21.989Z,101053.14
2023-02-04T18:29:54.984Z,101049.22
2023-02-04T18:32:33.752Z,101056.40
2023-02-04T18:35:02.893Z,101063.93
2023-02-04T18:37:32.099Z,101059.99
2023-02-04T18:40:09.360Z,101066.23
2023-02-04T18:42:42.881Z,101066.10
2023-02-04T18:45:29.768Z,101071.45
2023-02-04T18:47:59.854Z,101068.91
2023-02-04T18:50:32.648Z,101075.98
2023-02-04T18:53:16.365Z,101081.17
2023-02-04T18:55:47.934Z,101082.05
2023-02-04T18:58:22.314Z,101082.77
2023-02-04T19:01:12.859Z,101084.07
2023-02-04T19:04:01.023Z,101085.72
2023-02-04T19:06:39.699Z,101084.36
2023-02-04T19:09:11.153Z,101088.51
2023-02-04T19:11:53.231Z,101089.40
2023-02-04T19:14:28.865Z,101086.16
2023-02-04T19:17:07.919Z,101094.95
2023-02-04T19:19:38.118Z,101095.67
2023-02-04T19:22:20.746Z,101099.48
2023-02-04T19:24:50.257Z,101103.73
2023-02-04T19:27:34.569Z,101103.32
2023-02-04T19:30:29.254Z,101098.69
2023-02-04T19:33:13.972Z,101098.38
2023-02-04T19:35:43.550Z,101102.53
2023-02-04T19:38:30.586Z,101106.67
2023-02-04T19:41:00.681Z,101101.55
2023-02-04T19:43:38.993Z,101104.85
2023-02-04T21:16:50.496Z,101155.46
2023-02-04T21:19:18.741Z,101159.44
2023-02-04T21:21:47.324Z,101157.88
2023-02-04T21:24:15.757Z,101160.11
2023-02-04T21:26:44.752Z,101157.06
2023-02-04T21:29:13.462Z,101164.30
2023-02-04T21:31:41.826Z,101168.09
2023-02-04T21:34:10.111Z,101167.39
2023-02-04T21:36:38.743Z,101174.97
2023-02-04T21:39:07.016Z,101177.58
2023-02-04T21:41:37.501Z,101180.35
2023-02-04T21:44:05.998Z,101180.89
2023-02-04T21:46:34.074Z,101177.45
2023-02-04T21:49:04.082Z,101178.82
2023-02-04T21:51:34.458Z,101182.10
2023-02-04T21:54:05.453Z,101184.52
2023-02-04T21:56:34.557Z,101183.84
2023-02-04T21:59:02.856Z,101185.91
2023-02-04T22:01:30.968Z,101188.48
2023-02-04T22:03:59.342Z,101189.84
2023-02-04T22:06:27.461Z,101185.90
2023-02-04T22:08:55.553Z,101186.08
2023-02-04T22:11:24.881Z,101191.58
2023-02-04T22:13:53.514Z,101194.66
2023-02-04T22:16:21.665Z,101195.19
2023-02-04T22:18:49.901Z,101192.27
2023-02-04T22:21:18.578Z,101189.17
2023-02-04T22:23:47.144Z,101190.20
2023-02-04T22:26:15.585Z,101192.09
2023-02-04T22:28:44.058Z,101193.14
2023-02-04T22:31:14.976Z,101195.54
2023-02-04T22:33:43.189Z,101192.29
2023-02-04T22:36:12.613Z,101194.17
2023-02-04T22:38:40.975Z,101197.77
2023-02-04T22:41:10.224Z,101198.98
2023-02-04T22:43:39.069Z,101197.61
2023-02-04T22:46:07.546Z,101195.21
2023-02-04T22:48:35.953Z,101194.16
2023-02-04T22:51:04.448Z,101200.01
2023-02-04T22:53:32.819Z,101200.69
2023-02-04T22:56:01.407Z,101203.61
2023-02-04T22:58:29.861Z,101204.81
2023-02-04T23:00:57.936Z,101203.60
2023-02-04T23:03:26.433Z,101204.11
2023-02-04T23:05:54.775Z,101202.23
2023-02-04T23:08:23.285Z,101202.05
2023-02-04T23:10:52.195Z,101200.17
2023-02-04T23:13:28.545Z,101201.04
2023-02-04T23:15:57.484Z,101199.83
2023-02-04T23:18:25.777Z,101197.43
2023-02-04T23:20:54.209Z,101198.98
2023-02-04T23:23:22.489Z,101203.94
2023-02-04T23:25:51.644Z,101206.17
2023-02-04T23:28:21.057Z,101205.15
2023-02-04T23:30:53.034Z,101201.20
2023-02-04T23:33:21.370Z,101201.20
2023-02-04T23:35:53.905Z,101202.74
2023-02-04T23:38:22.172Z,101204.98
2023-02-04T23:40:50.873Z,101205.14
2023-02-04T23:43:18.969Z,101206.01
2023-02-04T23:45:47.517Z,101209.43
2023-02-04T23:48:15.628Z,101208.40
2023-02-04T23:50:47.568Z,101218.00
2023-02-04T23:53:15.834Z,101215.95
2023-02-04T23:55:46.544Z,101216.81
2023-02-04T23:58:14.867Z,101218.17
